Terminal Aerodrome Forecast
Issued by NWS Boston, MA

Home | Current Version | Previous Version | Text Only | Print | Product List | Glossary On
Versions: 1 2 3 4 5 6 7 8 9 10 11 12 13 14 15 16 17 18 19 20 21 22 23 24 25 26 27 28 29 30 31 32
000
FTUS41 KBOX 280926 AAB
TAFORH
TAF AMD
KORH 280926Z 2809/2906 25010KT P6SM SCT150
     FM281400 26006KT P6SM SCT200
     FM282100 26008KT P6SM VCSH SCT250
     FM290100 25006KT P6SM SCT200=

USA.gov is the U.S. government's official web portal to all federal, state and local government web resources and services.